createdAt,value
2023-03-04T00:01:17.786Z,11.90
2023-03-04T00:03:45.675Z,11.40
2023-03-04T00:06:13.593Z,11.50
2023-03-04T00:08:41.451Z,11.50
2023-03-04T00:11:09.361Z,11.60
2023-03-04T00:13:37.495Z,11.30
2023-03-04T00:16:05.742Z,11.60
2023-03-04T00:18:33.689Z,11.70
2023-03-04T00:21:01.781Z,10.90
2023-03-04T00:23:29.654Z,11.70
2023-03-04T00:25:57.528Z,11.30
2023-03-04T00:28:25.422Z,11.20
2023-03-04T00:30:53.773Z,10.70
2023-03-04T00:33:21.807Z,11.30
2023-03-04T00:35:49.850Z,10.90
2023-03-04T00:38:17.748Z,11.30
2023-03-04T00:40:45.662Z,11.40
2023-03-04T00:43:13.540Z,11.90
2023-03-04T00:45:41.525Z,11.80
2023-03-04T00:48:09.554Z,11.00
2023-03-04T00:50:37.974Z,10.60
2023-03-04T00:53:06.403Z,10.60
2023-03-04T00:55:34.331Z,11.00
2023-03-04T00:58:02.718Z,10.00
2023-03-04T01:00:30.610Z,10.70
2023-03-04T01:02:58.641Z,10.70
2023-03-04T01:05:26.778Z,11.10
2023-03-04T01:07:54.681Z,11.10
2023-03-04T01:10:22.536Z,11.70
2023-03-04T01:12:50.473Z,11.40
2023-03-04T01:15:18.747Z,12.40
2023-03-04T01:17:46.733Z,11.90
2023-03-04T01:20:17.016Z,11.50
2023-03-04T01:22:44.918Z,11.60
2023-03-04T01:25:12.884Z,11.00
2023-03-04T01:27:40.776Z,11.20
2023-03-04T01:30:11.096Z,11.50
2023-03-04T01:32:39.018Z,12.40
2023-03-04T01:35:07.515Z,12.20
2023-03-04T01:37:35.642Z,11.60
2023-03-04T01:40:05.488Z,11.90
2023-03-04T01:42:36.015Z,12.20
2023-03-04T01:45:05.508Z,12.90
2023-03-04T01:47:36.158Z,13.40
2023-03-04T01:50:11.509Z,14.20
2023-03-04T01:52:42.965Z,13.70
2023-03-04T01:55:16.752Z,14.20
2023-03-04T01:57:46.703Z,14.30
2023-03-04T02:00:23.192Z,15.10
2023-03-04T02:02:55.449Z,14.80
2023-03-04T02:05:24.649Z,14.30
2023-03-04T02:07:54.425Z,13.60
2023-03-04T02:10:22.872Z,14.80
2023-03-04T02:12:52.282Z,14.60
2023-03-04T02:15:21.022Z,14.70
2023-03-04T02:17:49.629Z,14.80
2023-03-04T02:20:32.923Z,15.50
2023-03-04T02:23:09.299Z,14.90
2023-03-04T02:25:47.874Z,15.80
2023-03-04T02:28:16.694Z,15.30
2023-03-04T02:30:44.888Z,15.00
2023-03-04T02:33:18.953Z,15.10
2023-03-04T02:35:47.146Z,16.50
2023-03-04T02:38:15.260Z,16.80
2023-03-04T02:40:48.182Z,16.90
2023-03-04T02:43:16.055Z,15.50
2023-03-04T02:45:47.476Z,17.30
2023-03-04T02:48:18.595Z,17.90
2023-03-04T02:50:53.210Z,18.50
2023-03-04T02:53:22.279Z,19.00
2023-03-04T02:55:50.467Z,18.70
2023-03-04T02:58:19.882Z,18.50
2023-03-04T03:00:48.227Z,19.30
2023-03-04T03:03:16.739Z,19.60
2023-03-04T03:05:44.769Z,18.60
2023-03-04T03:08:12.626Z,19.30
2023-03-04T03:10:40.767Z,19.50
2023-03-04T03:13:09.104Z,18.90
2023-03-04T03:15:42.183Z,20.70
2023-03-04T03:18:11.179Z,19.30
2023-03-04T03:20:39.107Z,18.80
2023-03-04T03:23:07.074Z,18.20
2023-03-04T03:25:34.993Z,18.90
2023-03-04T03:28:02.947Z,18.70
2023-03-04T03:30:30.920Z,18.60
2023-03-04T03:32:58.786Z,18.60
2023-03-04T03:35:27.084Z,17.40
2023-03-04T03:37:55.030Z,17.50
2023-03-04T03:40:23.115Z,17.80
2023-03-04T03:42:50.979Z,18.30
2023-03-04T03:45:18.932Z,18.40
2023-03-04T03:47:46.827Z,19.00
2023-03-04T03:50:14.720Z,17.90
2023-03-04T03:52:42.571Z,19.00
2023-03-04T03:55:10.761Z,18.80
2023-03-04T03:57:38.622Z,18.20
2023-03-04T04:00:08.651Z,18.80
2023-03-04T04:02:45.635Z,18.50
2023-03-04T04:05:14.288Z,19.30
2023-03-04T04:07:42.724Z,17.90
2023-03-04T04:10:11.475Z,18.50
2023-03-04T04:12:39.381Z,18.60
2023-03-04T04:15:08.110Z,18.20
2023-03-04T04:17:35.958Z,19.20
2023-03-04T04:20:04.828Z,18.80
2023-03-04T04:22:32.780Z,16.70
2023-03-04T04:25:00.667Z,18.00
2023-03-04T04:27:28.605Z,18.00
2023-03-04T04:29:56.470Z,17.10
2023-03-04T04:32:24.417Z,17.10
2023-03-04T04:34:52.407Z,17.90
2023-03-04T04:37:20.206Z,18.50
2023-03-04T04:39:48.052Z,18.80
2023-03-04T04:42:15.945Z,18.60
2023-03-04T04:44:43.875Z,18.10
2023-03-04T04:47:11.789Z,17.80
2023-03-04T04:49:39.765Z,18.60
2023-03-04T04:52:07.669Z,18.00
2023-03-04T04:54:35.532Z,17.30
2023-03-04T04:57:03.670Z,17.50
2023-03-04T04:59:31.655Z,17.20
2023-03-04T05:01:59.538Z,17.10
2023-03-04T05:04:27.602Z,18.30
2023-03-04T05:06:55.775Z,17.00
2023-03-04T05:09:23.626Z,17.50
2023-03-04T05:11:51.586Z,17.30
2023-03-04T05:14:19.505Z,18.10
2023-03-04T05:16:47.409Z,17.50
2023-03-04T05:19:15.405Z,16.80
2023-03-04T05:21:43.351Z,17.00
2023-03-04T05:24:11.231Z,18.20
2023-03-04T05:26:39.123Z,16.40
2023-03-04T05:29:07.137Z,16.90
2023-03-04T05:31:35.087Z,16.20
2023-03-04T05:34:03.037Z,17.50
2023-03-04T05:36:30.905Z,16.50
2023-03-04T05:38:58.857Z,16.30
2023-03-04T05:41:26.788Z,15.30
2023-03-04T05:43:54.758Z,14.80
2023-03-04T05:46:26.027Z,16.10
2023-03-04T05:48:54.977Z,16.20
2023-03-04T05:51:23.624Z,16.40
2023-03-04T05:53:51.623Z,15.60
2023-03-04T05:56:20.328Z,15.20
2023-03-04T05:58:48.294Z,15.70
2023-03-04T06:01:17.474Z,15.30
2023-03-04T06:03:45.490Z,15.60
2023-03-04T06:06:13.308Z,15.60
2023-03-04T06:08:41.209Z,15.50
2023-03-04T06:11:09.087Z,14.50
2023-03-04T06:13:38.202Z,15.30
2023-03-04T06:16:06.536Z,15.50
2023-03-04T06:18:34.426Z,14.10
2023-03-04T06:21:03.475Z,14.90
2023-03-04T06:23:31.838Z,13.80
2023-03-04T06:26:01.080Z,13.90
2023-03-04T06:28:29.721Z,13.90
2023-03-04T06:30:58.482Z,13.80
2023-03-04T06:33:26.413Z,13.20
2023-03-04T06:35:56.558Z,14.00
2023-03-04T06:38:25.308Z,13.40
2023-03-04T06:40:55.409Z,13.40
2023-03-04T06:43:24.999Z,13.20
2023-03-04T06:45:52.869Z,13.60
2023-03-04T06:48:20.796Z,13.00
2023-03-04T06:50:48.651Z,13.20
2023-03-04T06:53:16.646Z,12.60
2023-03-04T06:55:44.560Z,12.90
2023-03-04T06:58:12.428Z,13.70
2023-03-04T07:00:40.293Z,13.70
2023-03-04T07:12:39.468Z,13.00
2023-03-04T07:15:07.830Z,12.60
2023-03-04T07:17:36.362Z,13.20
2023-03-04T07:20:11.963Z,17.00
2023-03-04T07:22:39.819Z,14.30
2023-03-04T07:25:08.271Z,14.20
2023-03-04T07:27:38.537Z,16.80
2023-03-04T07:30:07.657Z,13.50
2023-03-04T07:32:36.111Z,13.30
2023-03-04T07:35:04.303Z,14.30
2023-03-04T07:37:32.204Z,14.10
2023-03-04T07:40:00.139Z,13.20
2023-03-04T07:42:28.059Z,13.80
2023-03-04T07:45:01.862Z,13.30
2023-03-04T07:47:29.726Z,14.30
2023-03-04T07:49:57.691Z,12.20
2023-03-04T07:52:26.476Z,11.80
2023-03-04T07:54:54.552Z,12.60
2023-03-04T07:57:23.004Z,12.50
2023-03-04T07:59:50.888Z,13.10
2023-03-04T08:02:19.080Z,12.30
2023-03-04T08:04:47.132Z,15.30
2023-03-04T08:07:15.013Z,11.20
2023-03-04T08:09:44.408Z,11.50
2023-03-04T08:12:12.284Z,11.30
2023-03-04T08:14:40.235Z,10.80
2023-03-04T08:17:09.931Z,11.10
2023-03-04T08:19:37.903Z,9.40
2023-03-04T08:22:05.928Z,9.20
2023-03-04T08:24:33.944Z,8.50
2023-03-04T08:27:02.057Z,9.30
2023-03-04T08:29:30.070Z,7.50
2023-03-04T08:31:58.388Z,7.30
2023-03-04T08:34:28.285Z,8.80
2023-03-04T08:36:56.190Z,10.60
2023-03-04T08:39:24.032Z,9.70
2023-03-04T08:41:51.894Z,9.00
2023-03-04T08:44:20.130Z,7.10
2023-03-04T08:46:48.044Z,8.20
2023-03-04T08:49:16.138Z,6.80
2023-03-04T08:51:45.292Z,6.70
2023-03-04T08:54:13.180Z,7.00
2023-03-04T08:56:41.805Z,6.40
2023-03-04T08:59:09.771Z,7.30
2023-03-04T09:01:37.778Z,6.80
2023-03-04T09:04:06.446Z,5.50
2023-03-04T09:06:34.712Z,5.50
2023-03-04T09:09:03.890Z,6.40
2023-03-04T09:11:32.191Z,6.10
2023-03-04T09:14:00.284Z,6.40
2023-03-04T09:16:28.162Z,8.20
2023-03-04T09:18:56.019Z,7.20
2023-03-04T09:21:24.002Z,7.30
2023-03-04T09:23:52.055Z,6.60
2023-03-04T09:26:26.825Z,6.40
2023-03-04T09:29:02.411Z,5.70
2023-03-04T09:31:30.900Z,7.30
2023-03-04T09:34:00.186Z,8.30
2023-03-04T09:36:28.072Z,7.60
2023-03-04T09:39:00.343Z,10.10
2023-03-04T09:41:42.232Z,9.30
2023-03-04T09:44:28.730Z,8.50
2023-03-04T09:47:00.587Z,10.80
2023-03-04T09:49:29.392Z,8.60
2023-03-04T09:52:18.972Z,7.30
2023-03-04T09:55:10.579Z,6.00
2023-03-04T09:57:50.872Z,6.90
2023-03-04T10:00:30.916Z,6.90
2023-03-04T10:03:17.885Z,6.80
2023-03-04T10:06:00.644Z,5.40
2023-03-04T10:08:53.067Z,6.70
2023-03-04T10:11:32.468Z,7.10
2023-03-04T10:14:18.633Z,5.30
2023-03-04T10:16:55.976Z,6.20
2023-03-04T10:20:09.163Z,7.00
2023-03-04T10:22:47.293Z,9.10
2023-03-04T10:25:15.173Z,6.40
2023-03-04T10:27:56.526Z,10.50
2023-03-04T10:30:46.238Z,7.60
2023-03-04T10:33:19.971Z,6.60
2023-03-04T10:38:40.601Z,6.30
2023-03-04T10:41:17.991Z,8.40
2023-03-04T10:44:00.119Z,9.20
2023-03-04T10:46:28.088Z,8.90
2023-03-04T10:48:56.618Z,7.20
2023-03-04T10:51:27.839Z,6.40
2023-03-04T10:54:04.887Z,6.80
2023-03-04T10:56:36.089Z,6.00
2023-03-04T10:59:34.345Z,7.50
2023-03-04T11:02:27.542Z,6.20
2023-03-04T11:05:07.885Z,6.10
2023-03-04T11:08:19.426Z,5.10
2023-03-04T11:10:50.157Z,6.10
2023-03-04T11:13:23.536Z,6.40
2023-03-04T11:15:51.420Z,4.60
2023-03-04T11:18:37.611Z,6.50
2023-03-04T11:21:06.815Z,5.10
2023-03-04T11:23:44.215Z,7.40
2023-03-04T11:26:19.756Z,6.30
2023-03-04T11:29:02.322Z,8.70
2023-03-04T11:31:56.024Z,9.40
2023-03-04T11:34:30.818Z,8.40
2023-03-04T11:37:08.128Z,5.90
2023-03-04T11:39:41.955Z,6.20
2023-03-04T11:42:33.814Z,6.30
2023-03-04T11:45:02.061Z,6.20
2023-03-04T11:47:55.392Z,10.00
2023-03-04T11:50:42.869Z,9.40
2023-03-04T11:53:33.613Z,7.90
2023-03-04T11:56:25.860Z,8.90
2023-03-04T11:59:05.659Z,11.80
2023-03-04T12:01:45.461Z,8.80
2023-03-04T12:04:31.875Z,10.50
2023-03-04T12:07:09.348Z,9.90
2023-03-04T12:10:09.324Z,13.80
2023-03-04T12:13:00.628Z,8.40
2023-03-04T12:15:54.568Z,7.80
2023-03-04T12:18:52.800Z,9.60
2023-03-04T12:21:45.465Z,11.00
2023-03-04T12:24:22.267Z,9.20
2023-03-04T12:27:16.980Z,7.20
2023-03-04T12:29:58.675Z,6.80
2023-03-04T12:32:35.698Z,5.00
2023-03-04T12:35:31.818Z,4.70
2023-03-04T12:38:05.425Z,6.80
2023-03-04T12:40:56.017Z,5.70
2023-03-04T12:43:29.975Z,5.90
2023-03-04T12:46:18.037Z,5.00
2023-03-04T12:49:24.573Z,8.00
2023-03-04T12:52:10.979Z,6.30
2023-03-04T12:54:38.764Z,6.90
2023-03-04T12:57:13.561Z,10.30
2023-03-04T13:00:17.774Z,9.60
2023-03-04T13:03:10.746Z,9.30
2023-03-04T13:06:04.676Z,8.90
2023-03-04T13:08:38.473Z,9.30
2023-03-04T13:11:28.467Z,12.20
2023-03-04T13:14:09.540Z,7.90
2023-03-04T13:16:43.905Z,9.50
2023-03-04T13:19:47.090Z,9.50
2023-03-04T13:22:39.940Z,5.80
2023-03-04T13:25:32.959Z,5.70
2023-03-04T13:28:02.711Z,7.00
2023-03-04T13:30:34.400Z,7.60
2023-03-04T13:33:11.363Z,6.50
2023-03-04T13:35:48.633Z,8.40
2023-03-04T13:38:32.572Z,6.10
2023-03-04T13:41:19.346Z,5.30
2023-03-04T13:43:54.257Z,9.10
2023-03-04T13:46:26.959Z,7.30
2023-03-04T13:49:00.562Z,7.30
2023-03-04T13:51:46.186Z,6.40
2023-03-04T13:54:26.731Z,6.80
2023-03-04T13:57:00.781Z,7.90
2023-03-04T13:59:32.040Z,7.70
2023-03-04T14:02:02.056Z,8.30
2023-03-04T14:04:33.440Z,7.10
2023-03-04T14:07:16.617Z,8.00
2023-03-04T14:09:58.688Z,8.00
2023-03-04T14:12:30.366Z,11.80
2023-03-04T14:15:02.958Z,14.70
2023-03-04T14:17:36.510Z,9.20
2023-03-04T14:20:06.474Z,8.50
2023-03-04T14:22:40.186Z,8.60
2023-03-04T14:25:13.978Z,9.10
2023-03-04T14:30:39.150Z,8.50
2023-03-04T14:33:24.336Z,7.70
2023-03-04T14:35:55.422Z,7.70
2023-03-04T14:38:27.133Z,9.20
2023-03-04T14:41:17.408Z,9.10
2023-03-04T14:44:16.801Z,7.20
2023-03-04T14:47:06.094Z,9.70
2023-03-04T14:49:39.652Z,10.50
2023-03-04T14:52:26.744Z,11.90
2023-03-04T14:55:17.780Z,10.80
2023-03-04T14:57:48.605Z,9.10
2023-03-04T15:00:20.648Z,8.50
2023-03-04T15:02:54.640Z,8.80
2023-03-04T15:05:29.714Z,8.00
2023-03-04T15:08:02.688Z,10.70
2023-03-04T15:10:38.061Z,10.50
2023-03-04T15:13:08.492Z,12.00
2023-03-04T15:15:46.095Z,10.50
2023-03-04T15:18:18.679Z,12.40
2023-03-04T15:20:55.181Z,13.20
2023-03-04T15:23:23.097Z,12.90
2023-03-04T15:25:56.202Z,12.90
2023-03-04T15:28:25.420Z,10.80
2023-03-04T15:30:54.524Z,14.10
2023-03-04T15:33:22.695Z,9.90
2023-03-04T15:35:57.675Z,12.80
2023-03-04T15:38:27.112Z,10.80
2023-03-04T15:40:58.319Z,10.50
2023-03-04T15:43:26.796Z,9.90
2023-03-04T15:45:54.898Z,12.20
2023-03-04T15:48:23.025Z,19.50
2023-03-04T15:50:59.311Z,15.90
2023-03-04T15:54:00.959Z,11.70
2023-03-04T15:56:31.850Z,10.90
2023-03-04T15:59:04.535Z,12.30
2023-03-04T16:01:32.606Z,12.60
2023-03-04T16:04:00.587Z,10.50
2023-03-04T16:06:30.872Z,10.40
2023-03-04T16:09:00.129Z,11.90
2023-03-04T16:11:30.941Z,10.70
2023-03-04T16:13:58.811Z,10.30
2023-03-04T16:16:26.844Z,7.10
2023-03-04T16:18:54.713Z,9.10
2023-03-04T16:21:26.132Z,8.40
2023-03-04T16:23:54.805Z,8.50
2023-03-04T16:26:28.212Z,9.60
2023-03-04T16:28:56.347Z,9.40
2023-03-04T16:31:24.315Z,9.70
2023-03-04T16:33:52.211Z,8.10
2023-03-04T16:36:24.440Z,10.10
2023-03-04T16:38:55.900Z,9.00
2023-03-04T16:41:28.405Z,10.00
2023-03-04T16:44:00.041Z,11.00
2023-03-04T16:46:28.672Z,12.60
2023-03-04T16:48:56.548Z,12.90
2023-03-04T16:51:24.558Z,11.30
2023-03-04T16:53:56.290Z,12.00
2023-03-04T16:56:24.279Z,12.10
2023-03-04T16:58:54.306Z,10.50
2023-03-04T17:01:26.053Z,12.20
2023-03-04T17:03:55.284Z,10.60
2023-03-04T17:06:24.683Z,16.00
2023-03-04T17:08:52.639Z,19.00
2023-03-04T17:11:23.234Z,10.70
2023-03-04T17:13:51.937Z,14.50
2023-03-04T17:16:19.918Z,17.60
2023-03-04T17:18:47.881Z,21.90
2023-03-04T17:21:22.834Z,27.90
2023-03-04T17:23:51.267Z,18.60
2023-03-04T17:26:22.768Z,15.10
2023-03-04T17:28:51.623Z,13.70
2023-03-04T17:31:21.074Z,10.10
2023-03-04T17:33:49.430Z,12.40
2023-03-04T17:36:18.734Z,12.70
2023-03-04T17:38:47.178Z,10.00
2023-03-04T17:41:18.626Z,7.90
2023-03-04T17:43:51.452Z,12.40
2023-03-04T17:46:22.243Z,9.00
2023-03-04T17:48:53.026Z,9.40
2023-03-04T17:51:21.413Z,7.40
2023-03-04T17:53:49.268Z,9.70
2023-03-04T17:56:17.435Z,10.50
2023-03-04T17:58:45.346Z,10.50
2023-03-04T18:01:20.978Z,8.00
2023-03-04T18:03:49.246Z,8.80
2023-03-04T18:06:18.353Z,8.80
2023-03-04T18:08:46.417Z,7.60
2023-03-04T18:11:14.876Z,7.60
2023-03-04T18:13:44.316Z,7.70
2023-03-04T18:16:15.705Z,9.90
2023-03-04T18:18:43.640Z,8.90
2023-03-04T18:21:13.577Z,7.90
2023-03-04T18:23:41.556Z,9.00
2023-03-04T18:26:09.948Z,8.60
2023-03-04T18:28:38.504Z,7.40
2023-03-04T18:31:06.752Z,7.20
2023-03-04T18:33:35.354Z,7.70
2023-03-04T18:36:06.159Z,8.50
2023-03-04T18:38:34.204Z,9.50
2023-03-04T18:41:08.233Z,9.10
2023-03-04T18:43:36.136Z,9.60
2023-03-04T18:46:30.038Z,8.50
2023-03-04T18:49:03.944Z,8.40
2023-03-04T18:51:32.395Z,8.30
2023-03-04T18:54:00.501Z,9.00
2023-03-04T18:56:38.535Z,8.20
2023-03-04T18:59:12.684Z,10.90
2023-03-04T19:01:40.934Z,11.40
2023-03-04T19:04:09.446Z,11.30
2023-03-04T19:06:37.496Z,12.90
2023-03-04T19:09:06.524Z,11.30
2023-03-04T19:11:34.791Z,10.10
2023-03-04T19:14:03.204Z,9.60
2023-03-04T19:16:31.420Z,11.70
2023-03-04T19:18:59.460Z,11.10
2023-03-04T19:21:27.446Z,11.30
2023-03-04T19:23:55.478Z,10.10
2023-03-04T19:26:23.428Z,9.20
2023-03-04T19:28:51.350Z,8.60
2023-03-04T19:31:19.272Z,10.10
2023-03-04T19:33:47.685Z,8.50
2023-03-04T19:36:15.651Z,9.70
2023-03-04T19:38:44.172Z,12.80
2023-03-04T19:41:15.654Z,10.90
2023-03-04T19:43:43.965Z,11.10
2023-03-04T19:46:12.822Z,10.60
2023-03-04T19:48:41.513Z,9.70
2023-03-04T19:51:26.345Z,9.10
2023-03-04T19:53:54.621Z,8.30
2023-03-04T19:56:23.512Z,8.70
2023-03-04T19:58:55.946Z,8.10
2023-03-04T20:01:28.400Z,7.80
2023-03-04T20:04:02.518Z,8.90
2023-03-04T20:06:31.175Z,8.60
2023-03-04T20:09:00.332Z,8.90
2023-03-04T20:11:29.430Z,9.50
2023-03-04T20:13:59.935Z,9.30
2023-03-04T20:16:28.931Z,10.70
2023-03-04T20:18:58.089Z,10.50
2023-03-04T20:21:28.335Z,12.10
2023-03-04T20:23:58.067Z,11.90
2023-03-04T20:26:26.361Z,9.80
2023-03-04T20:28:54.535Z,9.60
2023-03-04T20:31:29.748Z,8.60
2023-03-04T20:33:59.724Z,10.00
2023-03-04T20:36:29.867Z,8.90
2023-03-04T20:39:02.401Z,9.10
2023-03-04T20:41:33.425Z,9.00
2023-03-04T20:44:01.839Z,8.50
2023-03-04T20:46:40.155Z,9.20
2023-03-04T20:49:16.510Z,8.80
2023-03-04T20:51:44.454Z,8.30
2023-03-04T20:54:12.343Z,7.80
2023-03-04T20:56:40.674Z,8.00
2023-03-04T20:59:11.511Z,8.20
2023-03-04T21:01:42.131Z,7.90
2023-03-04T21:04:10.706Z,8.90
2023-03-04T21:06:39.727Z,10.60
2023-03-04T21:09:11.513Z,9.60
2023-03-04T21:11:42.862Z,9.40
2023-03-04T21:14:14.682Z,9.70
2023-03-04T21:16:43.185Z,9.10
2023-03-04T21:19:23.010Z,9.50
2023-03-04T21:21:52.141Z,10.10
2023-03-04T21:24:22.924Z,10.00
2023-03-04T21:26:51.124Z,10.00
2023-03-04T21:29:21.376Z,10.90
2023-03-04T21:31:53.698Z,12.10
2023-03-04T21:34:25.277Z,12.20
2023-03-04T21:36:53.182Z,9.50
2023-03-04T21:39:24.191Z,10.20
2023-03-04T21:41:52.954Z,10.00
2023-03-04T21:44:28.402Z,11.70
2023-03-04T21:46:58.386Z,10.70
2023-03-04T21:49:27.057Z,9.90
2023-03-04T21:51:55.282Z,9.90
2023-03-04T21:54:23.296Z,9.50
2023-03-04T21:56:51.240Z,9.80
2023-03-04T21:59:19.240Z,10.30
2023-03-04T22:01:47.249Z,9.80
2023-03-04T22:04:15.327Z,9.30
2023-03-04T22:06:43.317Z,9.10
2023-03-04T22:09:12.819Z,7.80
2023-03-04T22:11:40.742Z,7.80
2023-03-04T22:14:10.265Z,9.10
2023-03-04T22:16:48.920Z,9.90
2023-03-04T22:19:20.956Z,8.20
2023-03-04T22:21:48.851Z,8.40
2023-03-04T22:24:16.922Z,9.00
2023-03-04T22:26:44.776Z,8.70
2023-03-04T22:29:12.881Z,7.60
2023-03-04T22:31:41.172Z,7.00
2023-03-04T22:34:13.853Z,5.60
2023-03-04T22:36:43.865Z,3.90
2023-03-04T22:39:14.569Z,3.20
2023-03-04T22:41:42.524Z,3.90
2023-03-04T22:44:10.427Z,3.70
2023-03-04T22:46:39.781Z,3.90
2023-03-04T22:49:10.072Z,3.60
2023-03-04T22:51:41.425Z,3.70
2023-03-04T22:54:14.217Z,4.00
2023-03-04T22:56:42.650Z,4.40
2023-03-04T22:59:10.786Z,3.80
2023-03-04T23:01:38.887Z,3.70
2023-03-04T23:04:07.155Z,4.40
2023-03-04T23:06:35.070Z,4.30
2023-03-04T23:09:04.060Z,4.60
2023-03-04T23:11:35.541Z,5.00
2023-03-04T23:14:07.144Z,5.30
2023-03-04T23:16:41.050Z,5.00
2023-03-04T23:19:12.505Z,6.40
2023-03-04T23:21:40.940Z,6.20
2023-03-04T23:24:11.825Z,5.70
2023-03-04T23:26:41.581Z,5.00
2023-03-04T23:29:13.723Z,5.10
2023-03-04T23:31:42.723Z,5.00
2023-03-04T23:34:11.434Z,4.00
2023-03-04T23:36:39.563Z,4.10
2023-03-04T23:39:08.052Z,4.70
2023-03-04T23:41:36.445Z,4.40
2023-03-04T23:44:04.890Z,5.10
2023-03-04T23:46:32.925Z,6.00
2023-03-04T23:49:00.865Z,5.30
2023-03-04T23:51:29.817Z,5.30
2023-03-04T23:53:58.788Z,4.30
2023-03-04T23:56:29.688Z,4.40
2023-03-04T23:58:58.666Z,4.30
